< < Back
Terminal Aerodrome Forecast


Current Version              Previous Versions:   1  2  3  4  5  6  7  8  9  

Terminal Aerodrome Forecast

685
FTUS44 KMOB 280615 RRA
TAFMOB
TAF
KMOB 280615Z 2806/2906 02003KT P6SM SKC
     FM281200 05005KT P6SM VCSH FEW040 BKN100
     FM281700 13008KT P6SM VCSH BKN050 BKN100=

Latest METAR

542
SAUS80 KWBC 290500 RRA
MTRMOB
METAR KMOB 290456Z AUTO 36005KT 10SM FEW075 23/23 A3001 RMK AO2 SLP158
T02330228


USA.gov is the U.S. government's official web portal to all federal, state and local government web resources and services.